Time;durP1;ratioP1;P1;durP2;ratioP2;P2;SDS_P1;SDS_P2;PMS_P1;PMS_P2;Temp;Humidity;BMP_temperature;BMP_pressure;BME280_temperature;BME280_humidity;BME280_pressure;Samples;Min_cycle;Max_cycle;Signal;HPM_P1;HPM_P2
2022/10/26 00:01:20;;;;;;;;;;;13.30;60.60;;;;;;5081154;28;19925;-89
2022/10/26 00:03:46;;;;;;;;;;;13.30;60.60;;;;;;5075777;28;19990;-90
2022/10/26 00:06:13;;;;;;;;;;;13.30;60.70;;;;;;5085460;28;19934;-86
2022/10/26 00:08:38;;;;;;;;;;;13.30;60.90;;;;;;5074373;28;20260;-86
2022/10/26 00:11:04;;;;;;;;;;;13.40;60.90;;;;;;5083447;28;20057;-86
2022/10/26 00:13:30;;;;;;;;;;;13.40;60.90;;;;;;5093425;28;19927;-88
2022/10/26 00:15:55;;;;;;;;;;;13.40;60.80;;;;;;5082065;28;19919;-89
2022/10/26 00:18:21;;;;;;;;;;;13.40;61.00;;;;;;5070460;28;19925;-89
2022/10/26 00:20:47;;;;;;;;;;;13.40;61.00;;;;;;5076645;28;19963;-88
2022/10/26 00:23:12;;;;;;;;;;;13.40;61.10;;;;;;5084147;28;19931;-88
2022/10/26 00:25:38;;;;;;;;;;;13.40;61.10;;;;;;5088752;28;20355;-86
2022/10/26 00:28:03;;;;;;;;;;;13.40;61.00;;;;;;5072795;28;19938;-87
2022/10/26 00:30:29;;;;;;;;;;;13.40;61.00;;;;;;5081199;28;19928;-89
2022/10/26 00:32:54;;;;;;;;;;;13.40;61.00;;;;;;5083330;28;19955;-86
2022/10/26 00:35:20;;;;;;;;;;;13.40;61.00;;;;;;5084102;28;21720;-89
2022/10/26 00:37:45;;;;;;;;;;;13.40;61.00;;;;;;5072878;28;19917;-87
2022/10/26 00:40:11;;;;;;;;;;;13.40;61.00;;;;;;5071788;28;19912;-89
2022/10/26 00:42:36;;;;;;;;;;;13.40;61.20;;;;;;5084462;28;19950;-87
2022/10/26 00:45:20;;;;;;;;;;;13.40;61.20;;;;;;5077567;28;19916;-89
2022/10/26 00:48:04;;;;;;;;;;;13.50;61.10;;;;;;5084156;28;19922;-88
2022/10/26 00:50:35;;;;;;;;;;;13.40;61.10;;;;;;5074220;28;19919;-86
2022/10/26 00:53:03;;;;;;;;;;;13.40;61.30;;;;;;5089865;28;19916;-89
2022/10/26 00:55:31;;;;;;;;;;;13.40;61.30;;;;;;5082067;28;19912;-89
2022/10/26 00:57:57;;;;;;;;;;;13.50;61.20;;;;;;5084479;28;19951;-87
2022/10/26 01:00:22;;;;;;;;;;;13.50;61.10;;;;;;5090137;28;20049;-88
2022/10/26 01:02:49;;;;;;;;;;;13.50;61.00;;;;;;5083845;28;19983;-88
2022/10/26 01:05:16;;;;;;;;;;;13.40;60.90;;;;;;5080632;28;20011;-88
2022/10/26 01:07:42;;;;;;;;;;;13.40;60.90;;;;;;5088276;28;19916;-89
2022/10/26 01:10:08;;;;;;;;;;;13.40;60.80;;;;;;5081050;28;19912;-87
2022/10/26 01:12:33;;;;;;;;;;;13.40;60.90;;;;;;5078828;28;19972;-87
2022/10/26 01:14:59;;;;;;;;;;;13.30;60.80;;;;;;5082795;28;19923;-89
2022/10/26 01:17:34;;;;;;;;;;;13.30;60.90;;;;;;5076723;28;19921;-88
2022/10/26 01:20:08;;;;;;;;;;;13.40;60.80;;;;;;5084893;28;19954;-89
2022/10/26 01:22:46;;;;;;;;;;;13.30;60.80;;;;;;5078441;28;19916;-88
2022/10/26 01:25:19;;;;;;;;;;;13.30;61.10;;;;;;5071004;28;19920;-89
2022/10/26 01:27:49;;;;;;;;;;;13.30;61.30;;;;;;5077369;28;19960;-89
2022/10/26 01:30:21;;;;;;;;;;;13.40;61.30;;;;;;5068925;28;19913;-89
2022/10/26 01:33:05;;;;;;;;;;;13.40;61.40;;;;;;5080488;28;19916;-87
2022/10/26 01:35:33;;;;;;;;;;;13.40;61.50;;;;;;5070294;28;19923;-88
2022/10/26 01:38:05;;;;;;;;;;;13.40;61.60;;;;;;5078519;28;19916;-88
2022/10/26 01:40:35;;;;;;;;;;;13.50;61.70;;;;;;5077694;28;20363;-89
2022/10/26 01:43:03;;;;;;;;;;;13.50;61.90;;;;;;5080969;28;19931;-87
2022/10/26 01:45:29;;;;;;;;;;;13.50;62.00;;;;;;5086857;28;19947;-88
2022/10/26 01:47:55;;;;;;;;;;;13.50;62.00;;;;;;5084785;28;19916;-87
2022/10/26 01:50:21;;;;;;;;;;;13.60;62.10;;;;;;5079320;28;19981;-86
2022/10/26 01:52:50;;;;;;;;;;;13.70;62.10;;;;;;5075098;28;20418;-89
2022/10/26 01:55:34;;;;;;;;;;;13.70;62.40;;;;;;5069143;28;19956;-88
2022/10/26 01:58:05;;;;;;;;;;;13.80;62.60;;;;;;5075623;28;20011;-89
2022/10/26 02:00:32;;;;;;;;;;;13.80;62.70;;;;;;5072722;28;19971;-87
2022/10/26 02:03:03;;;;;;;;;;;13.80;62.80;;;;;;5078787;28;19989;-87
2022/10/26 02:05:28;;;;;;;;;;;13.90;62.70;;;;;;5086332;28;19915;-86
2022/10/26 02:08:11;;;;;;;;;;;13.90;62.60;;;;;;5083292;28;19917;-88
2022/10/26 02:10:39;;;;;;;;;;;14.00;62.60;;;;;;5069368;28;19970;-87
2022/10/26 02:13:17;;;;;;;;;;;13.90;62.60;;;;;;5074883;28;20010;-89
2022/10/26 02:15:46;;;;;;;;;;;13.90;62.50;;;;;;5074972;28;20005;-89
2022/10/26 02:18:22;;;;;;;;;;;13.90;62.50;;;;;;5087984;28;19920;-87
2022/10/26 02:20:50;;;;;;;;;;;13.90;62.50;;;;;;5080926;28;19912;-87
2022/10/26 02:23:16;;;;;;;;;;;13.90;62.60;;;;;;5072227;28;19929;-89
2022/10/26 02:25:44;;;;;;;;;;;13.80;62.70;;;;;;5076768;28;20338;-87
2022/10/26 02:28:12;;;;;;;;;;;13.90;62.80;;;;;;5078387;28;19928;-88
2022/10/26 02:30:39;;;;;;;;;;;13.80;62.80;;;;;;5084297;28;19912;-89
2022/10/26 02:33:06;;;;;;;;;;;13.80;62.80;;;;;;5081993;28;20386;-86
2022/10/26 02:35:34;;;;;;;;;;;13.80;62.70;;;;;;5084054;28;19947;-90
2022/10/26 02:38:01;;;;;;;;;;;13.80;62.70;;;;;;5073495;28;19916;-89
2022/10/26 02:40:27;;;;;;;;;;;13.90;62.60;;;;;;5072929;28;19970;-88
2022/10/26 02:42:54;;;;;;;;;;;13.80;62.60;;;;;;5087153;28;20371;-87
2022/10/26 02:45:24;;;;;;;;;;;13.80;62.70;;;;;;5092570;28;19919;-88
2022/10/26 02:47:50;;;;;;;;;;;13.80;62.70;;;;;;5080072;28;19920;-88
2022/10/26 02:50:17;;;;;;;;;;;13.80;62.80;;;;;;5081581;28;19912;-89
2022/10/26 02:52:49;;;;;;;;;;;13.80;62.80;;;;;;5089900;28;19923;-87
2022/10/26 02:55:21;;;;;;;;;;;13.80;62.80;;;;;;5086570;28;19908;-88
2022/10/26 02:57:48;;;;;;;;;;;13.80;62.80;;;;;;5092939;28;19941;-89
2022/10/26 03:00:15;;;;;;;;;;;13.80;62.70;;;;;;5072649;28;20292;-86
2022/10/26 03:02:44;;;;;;;;;;;13.80;62.60;;;;;;5073969;28;20272;-87
2022/10/26 03:05:13;;;;;;;;;;;13.80;62.60;;;;;;5074024;28;19912;-89
2022/10/26 03:07:38;;;;;;;;;;;13.80;62.70;;;;;;5072858;28;19924;-88
2022/10/26 03:10:04;;;;;;;;;;;13.80;62.70;;;;;;5082728;28;19908;-89
2022/10/26 03:12:30;;;;;;;;;;;13.70;62.70;;;;;;5092133;28;19920;-88
2022/10/26 03:14:55;;;;;;;;;;;13.80;62.60;;;;;;5095009;28;19923;-87
2022/10/26 03:17:20;;;;;;;;;;;13.70;62.60;;;;;;5111884;28;19923;-87
2022/10/26 03:19:46;;;;;;;;;;;13.70;62.50;;;;;;5112886;28;19908;-88
2022/10/26 03:22:12;;;;;;;;;;;13.70;62.60;;;;;;5113565;28;20541;-88
2022/10/26 03:24:37;;;;;;;;;;;13.60;62.60;;;;;;5112930;28;19974;-89
2022/10/26 03:27:03;;;;;;;;;;;13.60;62.60;;;;;;5114539;28;20441;-89
2022/10/26 03:29:28;;;;;;;;;;;13.60;62.60;;;;;;5113008;28;19908;-88
2022/10/26 03:31:54;;;;;;;;;;;13.50;62.60;;;;;;5083525;28;19916;-89
2022/10/26 03:34:20;;;;;;;;;;;13.60;62.60;;;;;;5085255;28;19991;-88
2022/10/26 03:36:45;;;;;;;;;;;13.60;62.60;;;;;;5083297;28;19924;-86
2022/10/26 03:39:11;;;;;;;;;;;13.50;62.60;;;;;;5073717;28;19908;-87
2022/10/26 03:41:36;;;;;;;;;;;13.60;62.60;;;;;;5075651;28;19916;-88
2022/10/26 03:44:02;;;;;;;;;;;13.60;62.60;;;;;;5078701;28;19924;-88
2022/10/26 03:46:27;;;;;;;;;;;13.50;62.50;;;;;;5085462;28;19923;-87
2022/10/26 03:48:53;;;;;;;;;;;13.60;62.50;;;;;;5076864;28;19962;-87
2022/10/26 03:51:18;;;;;;;;;;;13.50;62.50;;;;;;5075193;28;19916;-88
2022/10/26 03:53:44;;;;;;;;;;;13.50;62.60;;;;;;5081740;28;19912;-88
2022/10/26 03:56:09;;;;;;;;;;;13.50;62.70;;;;;;5086541;28;19912;-88
2022/10/26 03:58:35;;;;;;;;;;;13.60;62.70;;;;;;5093482;28;19915;-87
2022/10/26 04:01:00;;;;;;;;;;;13.50;62.60;;;;;;5071540;28;20007;-86
2022/10/26 04:03:26;;;;;;;;;;;13.50;62.70;;;;;;5070580;28;19929;-87
2022/10/26 04:05:52;;;;;;;;;;;13.60;62.90;;;;;;5072385;28;19916;-87
2022/10/26 04:08:17;;;;;;;;;;;13.60;63.10;;;;;;5079184;28;19923;-88
2022/10/26 04:10:44;;;;;;;;;;;13.70;63.20;;;;;;5085066;28;19934;-88
2022/10/26 04:13:10;;;;;;;;;;;13.70;63.50;;;;;;5072939;28;19924;-88
2022/10/26 04:15:35;;;;;;;;;;;13.80;63.60;;;;;;5074532;28;19912;-89
2022/10/26 04:18:01;;;;;;;;;;;13.80;63.60;;;;;;5076372;28;19916;-87
2022/10/26 04:20:27;;;;;;;;;;;13.90;63.60;;;;;;5072569;28;19916;-88
2022/10/26 04:23:00;;;;;;;;;;;14.00;63.70;;;;;;5076933;28;19946;-86
2022/10/26 04:25:25;;;;;;;;;;;14.00;63.70;;;;;;5070128;28;19916;-88
2022/10/26 04:27:51;;;;;;;;;;;14.00;63.60;;;;;;5072187;28;20415;-89
2022/10/26 04:30:17;;;;;;;;;;;14.10;63.60;;;;;;5076554;28;20252;-88
2022/10/26 04:32:42;;;;;;;;;;;14.10;63.60;;;;;;5073644;28;19916;-89
2022/10/26 04:35:08;;;;;;;;;;;14.10;63.50;;;;;;5073684;28;19955;-88
2022/10/26 04:37:33;;;;;;;;;;;14.20;63.60;;;;;;5072105;28;19921;-87
2022/10/26 04:39:59;;;;;;;;;;;14.20;63.50;;;;;;5079530;28;19912;-87
2022/10/26 04:42:24;;;;;;;;;;;14.20;63.40;;;;;;5071806;28;19931;-88
2022/10/26 04:44:50;;;;;;;;;;;14.20;63.40;;;;;;5070752;28;20391;-87
2022/10/26 04:47:15;;;;;;;;;;;14.10;63.30;;;;;;5082816;28;19923;-88
2022/10/26 04:49:41;;;;;;;;;;;14.10;63.30;;;;;;5072277;28;20003;-89
2022/10/26 04:52:06;;;;;;;;;;;14.10;63.20;;;;;;5079587;28;19970;-87
2022/10/26 04:54:32;;;;;;;;;;;14.00;63.10;;;;;;5079116;28;19912;-87
2022/10/26 04:56:57;;;;;;;;;;;14.00;63.00;;;;;;5077724;28;20011;-88
2022/10/26 04:59:23;;;;;;;;;;;14.00;63.00;;;;;;5079580;28;19923;-88
2022/10/26 05:01:48;;;;;;;;;;;14.00;63.10;;;;;;5084156;28;19967;-89
2022/10/26 05:04:14;;;;;;;;;;;14.00;63.40;;;;;;5075664;28;20290;-88
2022/10/26 05:06:39;;;;;;;;;;;14.10;63.60;;;;;;5072309;28;19920;-89
2022/10/26 05:09:05;;;;;;;;;;;14.10;63.70;;;;;;5071568;28;19913;-88
2022/10/26 05:11:30;;;;;;;;;;;14.20;63.80;;;;;;5070955;28;19916;-88
2022/10/26 05:13:56;;;;;;;;;;;14.20;63.90;;;;;;5076427;28;19913;-88
2022/10/26 05:16:21;;;;;;;;;;;14.30;63.90;;;;;;5069417;28;19920;-88
2022/10/26 05:18:48;;;;;;;;;;;14.30;64.00;;;;;;5081281;28;19912;-87
2022/10/26 05:21:18;;;;;;;;;;;14.40;64.00;;;;;;5070863;28;19942;-87
2022/10/26 05:23:47;;;;;;;;;;;14.40;64.10;;;;;;5069012;28;19920;-89
2022/10/26 05:26:13;;;;;;;;;;;14.40;64.20;;;;;;5072430;28;19959;-89
2022/10/26 05:28:38;;;;;;;;;;;14.50;64.20;;;;;;5077923;28;19944;-87
2022/10/26 05:31:04;;;;;;;;;;;14.50;64.20;;;;;;5076658;28;19924;-87
2022/10/26 05:33:29;;;;;;;;;;;14.50;64.20;;;;;;5084204;28;19931;-87
2022/10/26 05:35:55;;;;;;;;;;;14.50;64.20;;;;;;5076255;28;19912;-87
2022/10/26 05:38:20;;;;;;;;;;;14.50;64.20;;;;;;5083943;28;20019;-86
2022/10/26 05:40:49;;;;;;;;;;;14.60;64.20;;;;;;5073737;28;19958;-87
2022/10/26 05:43:15;;;;;;;;;;;14.60;64.20;;;;;;5073678;28;19960;-86
2022/10/26 05:45:41;;;;;;;;;;;14.60;64.20;;;;;;5072437;28;19962;-88
2022/10/26 05:48:06;;;;;;;;;;;14.60;64.20;;;;;;5078239;28;19917;-88
2022/10/26 05:50:32;;;;;;;;;;;14.60;64.20;;;;;;5083213;28;20270;-87
2022/10/26 05:52:57;;;;;;;;;;;14.70;64.30;;;;;;5082290;28;20283;-87
2022/10/26 05:55:23;;;;;;;;;;;14.70;64.30;;;;;;5080617;28;19975;-86
2022/10/26 05:57:49;;;;;;;;;;;14.70;64.40;;;;;;5077502;28;19916;-86
2022/10/26 06:00:16;;;;;;;;;;;14.80;64.50;;;;;;5072058;28;19916;-88
2022/10/26 06:02:48;;;;;;;;;;;14.80;64.50;;;;;;5080487;28;19935;-86
2022/10/26 06:05:20;;;;;;;;;;;14.80;64.50;;;;;;5072598;28;19975;-87
2022/10/26 06:07:45;;;;;;;;;;;14.80;64.40;;;;;;5078030;28;19927;-88
2022/10/26 06:10:11;;;;;;;;;;;14.90;64.40;;;;;;5074545;28;19917;-88
2022/10/26 06:12:36;;;;;;;;;;;14.90;64.40;;;;;;5082845;28;19958;-88
2022/10/26 06:15:03;;;;;;;;;;;15.00;64.40;;;;;;5074206;28;19916;-87
2022/10/26 06:17:37;;;;;;;;;;;15.00;64.40;;;;;;5072057;28;20046;-87
2022/10/26 06:20:03;;;;;;;;;;;15.00;64.40;;;;;;5081698;28;19916;-86
2022/10/26 06:22:51;;;;;;;;;;;15.10;64.40;;;;;;5075832;28;19945;-85
2022/10/26 06:25:36;;;;;;;;;;;15.10;64.50;;;;;;5080095;28;20018;-87
2022/10/26 06:28:04;;;;;;;;;;;15.20;64.60;;;;;;5083529;28;20253;-89
2022/10/26 06:30:30;;;;;;;;;;;15.30;64.90;;;;;;5070061;28;19916;-88
2022/10/26 06:32:56;;;;;;;;;;;15.30;64.90;;;;;;5074835;28;19941;-86
2022/10/26 06:35:36;;;;;;;;;;;15.40;64.80;;;;;;5090977;28;20365;-88
2022/10/26 06:38:03;;;;;;;;;;;15.50;64.70;;;;;;5090112;28;19916;-88
2022/10/26 06:40:31;;;;;;;;;;;15.60;64.80;;;;;;5091102;28;19916;-89
2022/10/26 06:42:57;;;;;;;;;;;15.70;64.70;;;;;;5092059;28;20354;-87
2022/10/26 06:45:22;;;;;;;;;;;15.70;64.60;;;;;;5079517;28;19916;-87
2022/10/26 06:47:48;;;;;;;;;;;15.80;64.60;;;;;;5071703;28;19923;-86
2022/10/26 06:50:32;;;;;;;;;;;15.80;64.70;;;;;;5069916;28;19995;-87
2022/10/26 06:52:58;;;;;;;;;;;15.90;64.70;;;;;;5070245;28;19958;-87
2022/10/26 06:55:25;;;;;;;;;;;15.90;64.80;;;;;;5071744;28;19924;-87
2022/10/26 06:57:51;;;;;;;;;;;16.00;64.80;;;;;;5077459;28;19929;-89
2022/10/26 07:00:18;;;;;;;;;;;16.10;64.80;;;;;;5073419;28;19991;-85
2022/10/26 07:02:44;;;;;;;;;;;16.10;64.70;;;;;;5073557;28;19921;-89
2022/10/26 07:05:11;;;;;;;;;;;16.20;64.70;;;;;;5074391;28;19928;-88
2022/10/26 07:07:46;;;;;;;;;;;16.20;64.80;;;;;;5074724;28;19920;-86
2022/10/26 07:10:13;;;;;;;;;;;16.30;64.70;;;;;;5073190;28;19970;-86
2022/10/26 07:12:39;;;;;;;;;;;16.30;64.80;;;;;;5073767;28;20247;-87
2022/10/26 07:15:05;;;;;;;;;;;16.40;64.90;;;;;;5074384;28;20363;-86
2022/10/26 07:17:31;;;;;;;;;;;16.50;64.90;;;;;;5071718;28;19924;-89
2022/10/26 07:19:59;;;;;;;;;;;16.50;64.90;;;;;;5074911;28;19939;-87
2022/10/26 07:22:24;;;;;;;;;;;16.60;64.90;;;;;;5073803;28;20024;-89
2022/10/26 07:24:50;;;;;;;;;;;16.70;65.00;;;;;;5071604;28;19999;-87
2022/10/26 07:27:18;;;;;;;;;;;16.70;65.00;;;;;;5072953;28;20015;-88
2022/10/26 07:29:44;;;;;;;;;;;16.80;65.00;;;;;;5072455;28;19916;-87
2022/10/26 07:32:09;;;;;;;;;;;16.90;65.00;;;;;;5072523;28;19958;-87
2022/10/26 07:34:35;;;;;;;;;;;17.00;65.00;;;;;;5075895;28;19900;-87
2022/10/26 07:37:01;;;;;;;;;;;17.10;65.00;;;;;;5074340;28;20270;-89
2022/10/26 07:39:27;;;;;;;;;;;17.20;65.00;;;;;;5074820;28;19923;-87
2022/10/26 07:41:52;;;;;;;;;;;17.20;65.20;;;;;;5079654;28;19949;-87
2022/10/26 07:44:20;;;;;;;;;;;17.30;65.40;;;;;;5072319;28;20367;-87
2022/10/26 07:46:46;;;;;;;;;;;17.40;65.50;;;;;;5068825;28;19928;-87
2022/10/26 07:49:12;;;;;;;;;;;17.50;65.70;;;;;;5078153;28;19917;-87
2022/10/26 07:51:40;;;;;;;;;;;17.70;65.80;;;;;;5079990;28;20298;-89
2022/10/26 07:54:06;;;;;;;;;;;17.80;65.80;;;;;;5075246;28;19917;-88
2022/10/26 07:56:31;;;;;;;;;;;17.80;65.90;;;;;;5076174;28;20295;-85
2022/10/26 07:58:57;;;;;;;;;;;17.80;66.00;;;;;;5075978;28;20008;-89
2022/10/26 08:01:23;;;;;;;;;;;17.90;66.10;;;;;;5071018;28;20018;-88
2022/10/26 08:03:52;;;;;;;;;;;18.00;66.60;;;;;;5072399;28;19930;-88
2022/10/26 08:06:18;;;;;;;;;;;18.40;68.90;;;;;;5069887;28;19913;-87
2022/10/26 08:08:45;;;;;;;;;;;19.00;70.10;;;;;;5075056;28;19929;-88
2022/10/26 08:11:11;;;;;;;;;;;19.60;70.20;;;;;;5075125;28;19912;-89
2022/10/26 08:13:37;;;;;;;;;;;20.30;69.90;;;;;;5080433;28;19921;-90
2022/10/26 08:16:03;;;;;;;;;;;20.80;69.20;;;;;;5070571;28;19913;-88
2022/10/26 08:18:29;;;;;;;;;;;21.30;68.90;;;;;;5075124;28;19963;-88
2022/10/26 08:20:59;;;;;;;;;;;21.90;68.10;;;;;;5073296;28;19947;-90
2022/10/26 08:23:25;;;;;;;;;;;22.30;68.00;;;;;;5078168;28;19932;-88
2022/10/26 08:25:51;;;;;;;;;;;22.70;66.50;;;;;;5068895;28;19922;-88
2022/10/26 08:28:16;;;;;;;;;;;22.70;65.50;;;;;;5069403;28;20095;-89
2022/10/26 08:30:42;;;;;;;;;;;22.60;64.70;;;;;;5073128;28;19922;-86
2022/10/26 08:33:08;;;;;;;;;;;22.50;64.60;;;;;;5076066;28;19920;-87
2022/10/26 08:35:36;;;;;;;;;;;22.40;64.70;;;;;;5074847;28;20031;-89
2022/10/26 08:38:02;;;;;;;;;;;22.30;64.90;;;;;;5067495;28;19935;-89
2022/10/26 08:40:30;;;;;;;;;;;22.30;64.80;;;;;;5077279;28;19916;-89
2022/10/26 08:43:14;;;;;;;;;;;22.20;64.90;;;;;;5069314;28;20641;-87
2022/10/26 08:46:02;;;;;;;;;;;22.10;64.80;;;;;;5084777;28;19916;-88
2022/10/26 08:48:33;;;;;;;;;;;22.00;64.80;;;;;;5080622;28;19920;-88
2022/10/26 08:51:01;;;;;;;;;;;21.90;64.80;;;;;;5068359;28;19956;-88
2022/10/26 08:53:40;;;;;;;;;;;21.90;64.90;;;;;;5093323;28;19916;-87
2022/10/26 08:56:10;;;;;;;;;;;21.90;65.20;;;;;;5089175;28;19916;-89
2022/10/26 08:58:39;;;;;;;;;;;21.80;65.00;;;;;;5072003;28;20010;-88
2022/10/26 09:01:07;;;;;;;;;;;21.90;65.10;;;;;;5079375;28;19942;-87
2022/10/26 09:03:33;;;;;;;;;;;21.90;64.80;;;;;;5071762;28;19928;-88
2022/10/26 09:06:18;;;;;;;;;;;21.80;65.00;;;;;;5071487;28;19917;-88
2022/10/26 09:08:44;;;;;;;;;;;21.80;65.00;;;;;;5072214;28;20363;-88
2022/10/26 09:11:09;;;;;;;;;;;21.80;65.40;;;;;;5070082;28;20311;-88
2022/10/26 09:13:49;;;;;;;;;;;21.90;65.60;;;;;;5070858;28;19927;-88
2022/10/26 09:16:15;;;;;;;;;;;21.90;65.40;;;;;;5074912;28;19929;-88
2022/10/26 09:18:46;;;;;;;;;;;22.00;65.20;;;;;;5074964;28;20011;-89
2022/10/26 09:21:25;;;;;;;;;;;22.10;65.60;;;;;;5067430;28;20007;-88
2022/10/26 09:23:51;;;;;;;;;;;22.30;65.80;;;;;;5066503;28;20002;-89
2022/10/26 09:26:37;;;;;;;;;;;22.40;65.30;;;;;;5070445;28;19956;-88
2022/10/26 09:29:06;;;;;;;;;;;22.50;64.90;;;;;;5078753;28;19920;-88
2022/10/26 09:31:34;;;;;;;;;;;22.60;65.60;;;;;;5077501;28;19920;-90
2022/10/26 09:34:03;;;;;;;;;;;22.80;65.60;;;;;;5083408;28;19917;-88
2022/10/26 09:36:29;;;;;;;;;;;23.00;65.80;;;;;;5065913;28;19942;-90
2022/10/26 09:39:01;;;;;;;;;;;23.20;66.00;;;;;;5072343;28;19916;-90
2022/10/26 09:41:26;;;;;;;;;;;23.40;65.50;;;;;;5073449;28;19932;-90
2022/10/26 09:43:56;;;;;;;;;;;23.50;65.00;;;;;;5080627;28;20287;-88
2022/10/26 09:46:48;;;;;;;;;;;23.70;65.10;;;;;;5073454;28;19920;-89
2022/10/26 09:49:15;;;;;;;;;;;23.90;65.40;;;;;;5078373;28;19920;-89
2022/10/26 09:51:42;;;;;;;;;;;24.40;66.20;;;;;;5069217;28;20024;-90
2022/10/26 09:54:13;;;;;;;;;;;24.90;65.80;;;;;;5079415;28;19917;-89
2022/10/26 09:56:39;;;;;;;;;;;25.40;64.90;;;;;;5074105;28;19950;-89
2022/10/26 09:59:06;;;;;;;;;;;25.90;65.30;;;;;;5071783;28;19916;-89
2022/10/26 10:01:32;;;;;;;;;;;26.40;63.20;;;;;;5074794;28;20268;-89
2022/10/26 10:04:09;;;;;;;;;;;26.70;63.20;;;;;;5087884;28;19920;-88
2022/10/26 10:06:35;;;;;;;;;;;27.00;61.80;;;;;;5076977;28;20006;-89
2022/10/26 10:09:03;;;;;;;;;;;27.30;61.70;;;;;;5081573;28;19985;-90
2022/10/26 10:11:53;;;;;;;;;;;27.50;60.60;;;;;;5105492;28;19920;-87
2022/10/26 10:14:19;;;;;;;;;;;27.60;59.80;;;;;;5078774;28;19916;-88
2022/10/26 10:16:59;;;;;;;;;;;27.70;60.60;;;;;;5078097;28;19920;-89
2022/10/26 10:19:28;;;;;;;;;;;27.90;61.20;;;;;;5075699;28;20007;-90
2022/10/26 10:21:58;;;;;;;;;;;28.20;60.00;;;;;;5072668;28;19921;-88
2022/10/26 10:24:31;;;;;;;;;;;28.40;58.40;;;;;;5072753;28;19928;-88
2022/10/26 10:26:58;;;;;;;;;;;28.60;58.30;;;;;;5072661;28;20030;-88
2022/10/26 10:29:25;;;;;;;;;;;28.80;57.50;;;;;;5076852;28;19938;-86
2022/10/26 10:31:59;;;;;;;;;;;28.90;55.80;;;;;;5070606;28;20456;-88
2022/10/26 10:34:24;;;;;;;;;;;28.90;53.70;;;;;;5080229;28;19955;-87
2022/10/26 10:36:50;;;;;;;;;;;29.10;53.90;;;;;;5081242;28;19959;-88
2022/10/26 10:39:26;;;;;;;;;;;29.00;54.20;;;;;;5080041;28;19958;-88
2022/10/26 10:41:51;;;;;;;;;;;28.80;53.60;;;;;;5071114;28;19936;-89
2022/10/26 10:44:21;;;;;;;;;;;29.00;53.20;;;;;;5071375;28;20023;-88
2022/10/26 10:46:47;;;;;;;;;;;29.20;53.30;;;;;;5083883;28;19947;-89
2022/10/26 10:49:20;;;;;;;;;;;29.30;53.50;;;;;;5074224;28;19916;-88
2022/10/26 10:51:47;;;;;;;;;;;29.50;52.20;;;;;;5079713;28;19920;-88
2022/10/26 10:54:24;;;;;;;;;;;29.50;50.30;;;;;;5079127;28;19922;-88
2022/10/26 10:56:54;;;;;;;;;;;29.50;49.90;;;;;;5080000;28;19924;-88
2022/10/26 10:59:19;;;;;;;;;;;29.70;51.10;;;;;;5090474;28;20421;-88
2022/10/26 11:01:56;;;;;;;;;;;29.80;50.90;;;;;;5076162;28;20004;-88
2022/10/26 11:04:46;;;;;;;;;;;30.10;51.40;;;;;;5078919;28;20029;-88
2022/10/26 11:07:14;;;;;;;;;;;30.30;49.10;;;;;;5072872;28;20030;-87
2022/10/26 11:09:42;;;;;;;;;;;30.50;48.60;;;;;;5096855;28;19919;-88
2022/10/26 11:12:11;;;;;;;;;;;30.60;49.20;;;;;;5080545;28;19920;-88
2022/10/26 11:14:38;;;;;;;;;;;30.80;47.00;;;;;;5082456;28;20005;-88
2022/10/26 11:17:27;;;;;;;;;;;31.10;47.00;;;;;;5072169;28;20313;-90
2022/10/26 11:19:55;;;;;;;;;;;31.30;47.00;;;;;;5072501;28;19926;-89
2022/10/26 11:22:39;;;;;;;;;;;31.40;46.60;;;;;;5070174;28;20429;-88
2022/10/26 11:25:11;;;;;;;;;;;31.50;46.40;;;;;;5072159;28;19979;-88
2022/10/26 11:27:49;;;;;;;;;;;31.70;46.40;;;;;;5087758;28;19912;-89
2022/10/26 11:30:18;;;;;;;;;;;32.00;48.00;;;;;;5075587;28;19921;-88
2022/10/26 11:32:44;;;;;;;;;;;32.10;45.70;;;;;;5079094;28;19916;-88
2022/10/26 11:35:15;;;;;;;;;;;32.20;46.00;;;;;;5085936;28;19931;-88
2022/10/26 11:37:52;;;;;;;;;;;32.30;46.10;;;;;;5080927;28;20492;-87
2022/10/26 11:40:36;;;;;;;;;;;32.30;45.40;;;;;;5086940;28;19925;-88
2022/10/26 11:43:07;;;;;;;;;;;32.40;45.10;;;;;;5074960;28;19939;-88
2022/10/26 11:45:38;;;;;;;;;;;32.50;45.60;;;;;;5079018;28;19921;-88
2022/10/26 11:48:22;;;;;;;;;;;32.60;46.40;;;;;;5080814;28;19912;-89
2022/10/26 11:50:52;;;;;;;;;;;32.70;43.90;;;;;;5089877;28;19927;-89
2022/10/26 11:53:29;;;;;;;;;;;32.70;44.40;;;;;;5072443;28;19966;-88
2022/10/26 11:55:55;;;;;;;;;;;32.70;44.00;;;;;;5071456;28;19912;-88
2022/10/26 11:58:25;;;;;;;;;;;32.70;44.30;;;;;;5078073;28;20260;-88
2022/10/26 12:01:01;;;;;;;;;;;32.80;43.90;;;;;;5089462;28;20043;-87
2022/10/26 12:03:48;;;;;;;;;;;32.80;44.40;;;;;;5080141;28;19924;-88
2022/10/26 12:06:15;;;;;;;;;;;32.70;43.60;;;;;;5071815;28;19916;-89
2022/10/26 12:08:45;;;;;;;;;;;32.70;44.10;;;;;;5071997;28;20287;-88
2022/10/26 12:11:26;;;;;;;;;;;32.70;45.50;;;;;;5088346;28;20038;-89
2022/10/26 12:14:08;;;;;;;;;;;32.60;46.00;;;;;;5090535;28;19938;-90
2022/10/26 12:16:53;;;;;;;;;;;32.30;40.90;;;;;;5089460;28;19916;-89
2022/10/26 12:19:21;;;;;;;;;;;31.90;40.10;;;;;;5091566;28;19916;-90
2022/10/26 12:21:48;;;;;;;;;;;31.50;40.20;;;;;;5080740;28;19929;-89
2022/10/26 12:24:34;;;;;;;;;;;31.20;40.30;;;;;;5080783;28;19928;-89
2022/10/26 12:27:03;;;;;;;;;;;30.70;38.00;;;;;;5080710;28;19926;-89
2022/10/26 12:29:34;;;;;;;;;;;30.10;38.90;;;;;;5090387;28;19975;-89
2022/10/26 12:32:01;;;;;;;;;;;29.60;39.30;;;;;;5071183;28;19963;-88
2022/10/26 12:34:29;;;;;;;;;;;29.20;40.40;;;;;;5085514;28;19931;-90
2022/10/26 12:36:55;;;;;;;;;;;28.80;40.70;;;;;;5090914;28;19919;-90
2022/10/26 12:39:27;;;;;;;;;;;28.50;40.50;;;;;;5080379;28;20466;-89
2022/10/26 12:42:04;;;;;;;;;;;28.30;40.90;;;;;;5089740;28;19916;-88
2022/10/26 12:44:44;;;;;;;;;;;28.20;42.00;;;;;;5090730;28;19924;-90
2022/10/26 12:47:29;;;;;;;;;;;28.10;43.20;;;;;;5090553;28;19916;-89
2022/10/26 12:49:59;;;;;;;;;;;28.00;42.80;;;;;;5091117;28;19916;-90
2022/10/26 12:52:27;;;;;;;;;;;27.90;43.40;;;;;;5092046;28;19916;-89
2022/10/26 12:55:03;;;;;;;;;;;27.80;44.10;;;;;;5094837;28;19920;-90
2022/10/26 12:57:36;;;;;;;;;;;27.80;44.00;;;;;;5089885;28;19926;-88
2022/10/26 13:00:05;;;;;;;;;;;27.60;43.80;;;;;;5084795;28;19920;-88
2022/10/26 13:02:57;;;;;;;;;;;27.40;43.90;;;;;;5081428;28;19948;-88
2022/10/26 13:05:32;;;;;;;;;;;27.30;43.30;;;;;;5068110;28;19924;-87
2022/10/26 13:08:08;;;;;;;;;;;27.10;44.20;;;;;;5073162;28;19938;-88
2022/10/26 13:10:35;;;;;;;;;;;27.00;44.80;;;;;;5071956;28;19921;-89
2022/10/26 13:13:01;;;;;;;;;;;26.90;45.10;;;;;;5073264;28;19980;-89
2022/10/26 13:15:46;;;;;;;;;;;26.90;44.50;;;;;;5075013;28;20414;-89
2022/10/26 13:18:16;;;;;;;;;;;26.80;44.30;;;;;;5073574;28;19916;-88
2022/10/26 13:21:01;;;;;;;;;;;26.80;44.00;;;;;;5070885;28;19920;-89
2022/10/26 13:23:27;;;;;;;;;;;26.70;44.30;;;;;;5081499;28;19934;-90
2022/10/26 13:26:11;;;;;;;;;;;26.70;44.50;;;;;;5076021;28;21429;-90
2022/10/26 13:28:37;;;;;;;;;;;26.70;44.70;;;;;;5088212;28;19919;-89
2022/10/26 13:31:17;;;;;;;;;;;26.70;45.20;;;;;;5091256;28;19916;-88
2022/10/26 13:33:44;;;;;;;;;;;26.70;45.20;;;;;;5088981;28;20011;-89
2022/10/26 13:36:31;;;;;;;;;;;26.60;44.70;;;;;;5088138;28;19916;-89
2022/10/26 13:39:19;;;;;;;;;;;26.60;44.80;;;;;;5088555;28;19924;-90
2022/10/26 13:41:46;;;;;;;;;;;26.60;44.90;;;;;;5090257;28;19916;-90
2022/10/26 13:44:26;;;;;;;;;;;26.50;44.60;;;;;;5087733;28;19924;-88
2022/10/26 13:46:55;;;;;;;;;;;26.40;44.50;;;;;;5068799;28;19970;-88
2022/10/26 13:49:24;;;;;;;;;;;26.30;44.30;;;;;;5069774;28;19916;-87
2022/10/26 13:51:50;;;;;;;;;;;26.30;44.50;;;;;;5072045;28;19917;-90
2022/10/26 13:54:22;;;;;;;;;;;26.30;45.00;;;;;;5067696;28;19978;-89
2022/10/26 13:56:58;;;;;;;;;;;26.40;45.40;;;;;;5068447;28;20031;-89
2022/10/26 13:59:24;;;;;;;;;;;26.40;45.60;;;;;;5068498;28;19920;-89
2022/10/26 14:02:04;;;;;;;;;;;26.50;45.90;;;;;;5071909;28;19923;-90
2022/10/26 14:04:30;;;;;;;;;;;26.60;45.60;;;;;;5078611;28;19924;-90
2022/10/26 14:06:55;;;;;;;;;;;26.60;45.50;;;;;;5067241;28;19924;-90
2022/10/26 14:09:23;;;;;;;;;;;26.50;45.50;;;;;;5071097;28;19920;-89
2022/10/26 14:11:54;;;;;;;;;;;26.50;45.30;;;;;;5073782;28;19920;-89
2022/10/26 14:14:28;;;;;;;;;;;26.40;44.50;;;;;;5069055;28;19919;-88
2022/10/26 14:16:54;;;;;;;;;;;26.40;45.00;;;;;;5068324;28;19978;-88
2022/10/26 14:19:23;;;;;;;;;;;26.40;45.20;;;;;;5082681;28;19974;-89
2022/10/26 14:21:49;;;;;;;;;;;26.30;44.80;;;;;;5089553;28;19919;-88
2022/10/26 14:24:29;;;;;;;;;;;26.30;45.00;;;;;;5088984;28;20363;-88
2022/10/26 14:26:55;;;;;;;;;;;26.30;45.50;;;;;;5090952;28;19916;-88
2022/10/26 14:29:23;;;;;;;;;;;26.30;45.90;;;;;;5091036;28;19946;-88